createdAt,value
2023-03-25T00:01:14.196Z,97718.03
2023-03-25T00:03:19.824Z,97723.59
2023-03-25T00:05:25.421Z,97728.59
2023-03-25T00:07:31.951Z,97730.31
2023-03-25T00:09:37.543Z,97726.13
2023-03-25T00:11:42.893Z,97736.88
2023-03-25T00:13:48.724Z,97733.19
2023-03-25T00:15:58.297Z,97741.28
2023-03-25T00:18:06.579Z,97734.53
2023-03-25T00:20:14.271Z,97731.94
2023-03-25T00:22:20.835Z,97730.78
2023-03-25T00:24:26.190Z,97737.97
2023-03-25T00:26:32.450Z,97738.84
2023-03-25T00:28:40.699Z,97735.47
2023-03-25T00:30:47.872Z,97730.34
2023-03-25T00:32:53.546Z,97713.75
2023-03-25T00:35:01.280Z,97722.25
2023-03-25T00:37:06.449Z,97708.22
2023-03-25T00:39:12.247Z,97712.53
2023-03-25T00:41:23.481Z,97706.06
2023-03-25T00:43:29.191Z,97706.84
2023-03-25T00:45:36.529Z,97703.09
2023-03-25T00:47:42.146Z,97698.97
2023-03-25T00:49:47.607Z,97697.38
2023-03-25T00:51:55.496Z,97703.22
2023-03-25T00:54:03.525Z,97711.53
2023-03-25T00:56:10.133Z,97712.38
2023-03-25T00:58:15.852Z,97706.59
2023-03-25T01:00:22.078Z,97714.25
2023-03-25T01:02:27.815Z,97716.25
2023-03-25T01:04:33.486Z,97717.13
2023-03-25T01:06:41.748Z,97710.38
2023-03-25T01:08:49.900Z,97708.53
2023-03-25T01:10:56.667Z,97713.38
2023-03-25T01:13:01.715Z,97706.50
2023-03-25T01:15:07.642Z,97715.78
2023-03-25T01:17:13.267Z,97716.81
2023-03-25T01:19:19.241Z,97703.50
2023-03-25T01:21:24.880Z,97710.19
2023-03-25T01:23:30.174Z,97701.06
2023-03-25T01:25:38.306Z,97699.44
2023-03-25T01:27:43.375Z,97702.09
2023-03-25T01:29:48.418Z,97707.22
2023-03-25T01:31:53.791Z,97715.72
2023-03-25T01:34:00.028Z,97708.84
2023-03-25T01:36:09.525Z,97712.94
2023-03-25T01:38:15.221Z,97705.38
2023-03-25T01:40:24.362Z,97719.56
2023-03-25T01:42:33.217Z,97718.03
2023-03-25T01:45:17.332Z,97730.56
2023-03-25T01:47:23.001Z,97726.84
2023-03-25T01:49:33.523Z,97717.63
2023-03-25T01:51:43.444Z,97730.00
2023-03-25T01:53:50.152Z,97725.94
2023-03-25T01:55:56.746Z,97717.63
2023-03-25T01:58:10.959Z,97729.47
2023-03-25T02:00:19.045Z,97718.56
2023-03-25T02:02:36.808Z,97712.22
2023-03-25T02:04:59.296Z,97711.88
2023-03-25T02:07:08.477Z,97705.31
2023-03-25T02:09:16.416Z,97701.34
2023-03-25T02:11:21.527Z,97703.41
2023-03-25T02:13:29.782Z,97709.63
2023-03-25T02:15:45.706Z,97713.75
2023-03-25T02:18:07.427Z,97702.25
2023-03-25T02:20:48.325Z,97704.00
2023-03-25T02:23:43.170Z,97702.63
2023-03-25T02:26:10.034Z,97695.06
2023-03-25T02:28:29.404Z,97696.00
2023-03-25T02:31:12.044Z,97687.00
2023-03-25T02:34:03.657Z,97686.94
2023-03-25T02:37:04.172Z,97676.25
2023-03-25T02:39:17.693Z,97692.28
2023-03-25T02:41:30.880Z,97691.56
2023-03-25T02:43:38.723Z,97689.13
2023-03-25T02:45:49.098Z,97693.00
2023-03-25T02:48:00.915Z,97689.72
2023-03-25T02:50:11.982Z,97686.53
2023-03-25T02:52:22.338Z,97683.16
2023-03-25T02:54:34.697Z,97680.78
2023-03-25T02:56:44.755Z,97688.44
2023-03-25T02:58:52.303Z,97678.63
2023-03-25T03:00:59.044Z,97682.00
2023-03-25T03:03:07.488Z,97676.31
2023-03-25T03:05:27.081Z,97671.34
2023-03-25T03:07:37.445Z,97675.66
2023-03-25T03:09:53.713Z,97677.44
2023-03-25T03:12:22.026Z,97678.13
2023-03-25T03:14:40.212Z,97665.34
2023-03-25T03:16:52.723Z,97663.63
2023-03-25T03:19:08.860Z,97668.25
2023-03-25T03:21:23.360Z,97664.69
2023-03-25T03:23:37.127Z,97666.06
2023-03-25T03:25:53.533Z,97667.47
2023-03-25T03:28:04.716Z,97665.53
2023-03-25T03:30:16.442Z,97667.28
2023-03-25T03:32:30.951Z,97674.94
2023-03-25T03:34:45.012Z,97674.22
2023-03-25T03:36:55.031Z,97669.41
2023-03-25T03:39:07.458Z,97674.63
2023-03-25T03:41:22.354Z,97674.72
2023-03-25T03:43:34.439Z,97677.94
2023-03-25T03:45:46.627Z,97663.13
2023-03-25T03:47:57.887Z,97664.78
2023-03-25T03:50:09.754Z,97661.50
2023-03-25T03:52:21.705Z,97663.06
2023-03-25T03:54:32.063Z,97664.59
2023-03-25T03:56:46.765Z,97666.22
2023-03-25T03:58:58.657Z,97669.59
2023-03-25T04:01:12.520Z,97667.88
2023-03-25T04:03:24.643Z,97672.97
2023-03-25T04:05:32.518Z,97667.88
2023-03-25T04:07:43.218Z,97663.47
2023-03-25T04:10:03.043Z,97667.66
2023-03-25T04:12:17.994Z,97654.44
2023-03-25T04:14:23.807Z,97667.78
2023-03-25T04:16:29.178Z,97657.78
2023-03-25T04:18:34.235Z,97666.91
2023-03-25T04:20:44.905Z,97657.66
2023-03-25T04:22:52.019Z,97649.38
2023-03-25T04:25:00.368Z,97645.28
2023-03-25T04:27:05.699Z,97651.09
2023-03-25T04:29:13.942Z,97650.28
2023-03-25T04:31:20.382Z,97664.41
2023-03-25T04:33:25.548Z,97660.16
2023-03-25T04:35:33.253Z,97652.56
2023-03-25T04:37:38.399Z,97649.16
2023-03-25T04:39:43.460Z,97657.75
2023-03-25T04:41:48.749Z,97652.75
2023-03-25T04:43:53.874Z,97656.03
2023-03-25T04:46:02.656Z,97647.63
2023-03-25T04:48:15.174Z,97647.44
2023-03-25T04:50:24.853Z,97649.09
2023-03-25T04:52:29.920Z,97675.78
2023-03-25T04:54:34.948Z,97675.78
2023-03-25T04:56:40.610Z,97675.00
2023-03-25T04:58:45.839Z,97677.50
2023-03-25T05:00:54.326Z,97675.84
2023-03-25T05:03:02.416Z,97670.78
2023-03-25T05:05:08.109Z,97671.69
2023-03-25T05:07:13.445Z,97679.31
2023-03-25T05:09:22.325Z,97680.97
2023-03-25T05:11:27.583Z,97671.84
2023-03-25T05:13:32.845Z,97683.50
2023-03-25T05:15:40.017Z,97690.25
2023-03-25T05:17:46.501Z,97696.16
2023-03-25T05:19:55.154Z,97693.69
2023-03-25T05:22:02.326Z,97692.22
2023-03-25T05:24:10.479Z,97702.41
2023-03-25T05:26:15.571Z,97710.03
2023-03-25T05:28:21.469Z,97706.63
2023-03-25T05:30:32.552Z,97713.28
2023-03-25T05:32:41.502Z,97714.28
2023-03-25T05:34:46.885Z,97726.03
2023-03-25T05:36:54.606Z,97727.00
2023-03-25T05:38:59.959Z,97730.22
2023-03-25T05:41:05.003Z,97729.53
2023-03-25T05:43:11.003Z,97730.50
2023-03-25T05:45:16.031Z,97734.78
2023-03-25T05:47:24.005Z,97732.38
2023-03-25T05:49:29.958Z,97729.22
2023-03-25T05:51:38.704Z,97738.41
2023-03-25T05:53:50.145Z,97736.66
2023-03-25T05:55:55.216Z,97743.97
2023-03-25T05:58:01.312Z,97749.81
2023-03-25T06:00:08.551Z,97746.47
2023-03-25T06:02:19.771Z,97748.00
2023-03-25T06:04:25.689Z,97753.78
2023-03-25T06:06:32.350Z,97754.59
2023-03-25T06:08:37.521Z,97754.53
2023-03-25T06:10:46.099Z,97753.59
2023-03-25T06:12:53.207Z,97746.78
2023-03-25T06:14:58.239Z,97745.72
2023-03-25T06:17:03.460Z,97746.63
2023-03-25T06:19:09.965Z,97740.81
2023-03-25T06:21:15.816Z,97746.63
2023-03-25T06:23:22.405Z,97736.66
2023-03-25T06:25:28.617Z,97738.34
2023-03-25T06:27:40.480Z,97748.34
2023-03-25T06:29:47.311Z,97751.63
2023-03-25T06:31:53.028Z,97747.22
2023-03-25T06:34:00.051Z,97752.06
2023-03-25T06:36:05.170Z,97760.13
2023-03-25T06:38:10.935Z,97752.50
2023-03-25T06:40:35.162Z,97762.38
2023-03-25T06:42:44.557Z,97760.69
2023-03-25T06:45:09.748Z,97768.81
2023-03-25T06:47:20.649Z,97766.91
2023-03-25T06:49:28.534Z,97775.16
2023-03-25T06:51:35.121Z,97785.19
2023-03-25T06:53:40.530Z,97782.56
2023-03-25T06:55:46.137Z,97782.75
2023-03-25T06:57:57.369Z,97782.94
2023-03-25T07:00:02.456Z,97780.66
2023-03-25T07:02:07.724Z,97781.56
2023-03-25T07:04:13.045Z,97782.50
2023-03-25T07:06:21.423Z,97794.22
2023-03-25T07:08:26.484Z,97790.59
2023-03-25T07:10:32.705Z,97788.66
2023-03-25T07:12:38.058Z,97790.00
2023-03-25T07:14:46.647Z,97802.47
2023-03-25T07:16:52.247Z,97789.53
2023-03-25T07:18:59.685Z,97795.91
2023-03-25T07:21:04.975Z,97804.09
2023-03-25T07:23:10.008Z,97798.06
2023-03-25T07:25:16.082Z,97802.16
2023-03-25T07:27:21.412Z,97797.97
2023-03-25T07:29:36.533Z,97815.66
2023-03-25T07:31:44.453Z,97803.50
2023-03-25T07:33:49.508Z,97794.00
2023-03-25T07:35:55.319Z,97791.75
2023-03-25T07:38:00.629Z,97800.03
2023-03-25T07:40:06.582Z,97804.38
2023-03-25T07:42:11.852Z,97803.50
2023-03-25T07:44:38.560Z,97797.03
2023-03-25T07:46:47.969Z,97800.31
2023-03-25T07:48:53.381Z,97803.66
2023-03-25T07:50:58.795Z,97822.22
2023-03-25T07:53:03.856Z,97811.19
2023-03-25T07:55:11.063Z,97806.78
2023-03-25T07:57:16.246Z,97810.16
2023-03-25T07:59:21.355Z,97811.59
2023-03-25T08:01:26.885Z,97808.94
2023-03-25T08:03:35.276Z,97796.34
2023-03-25T08:05:40.853Z,97794.41
2023-03-25T08:07:46.164Z,97800.06
2023-03-25T08:09:51.310Z,97800.69
2023-03-25T08:11:57.000Z,97797.75
2023-03-25T08:14:02.375Z,97806.13
2023-03-25T08:16:15.141Z,97802.00
2023-03-25T08:18:20.443Z,97799.31
2023-03-25T08:20:28.063Z,97800.06
2023-03-25T08:22:33.269Z,97804.28
2023-03-25T08:24:38.381Z,97806.13
2023-03-25T08:26:43.852Z,97803.84
2023-03-25T08:28:49.650Z,97805.59
2023-03-25T08:30:58.269Z,97805.47
2023-03-25T08:33:03.335Z,97812.03
2023-03-25T08:35:10.135Z,97805.97
2023-03-25T08:37:18.165Z,97804.28
2023-03-25T08:39:30.141Z,97795.75
2023-03-25T08:41:35.243Z,97798.28
2023-03-25T08:43:40.468Z,97787.19
2023-03-25T08:45:45.597Z,97787.72
2023-03-25T08:47:50.745Z,97802.50
2023-03-25T08:49:55.871Z,97797.66
2023-03-25T08:52:02.024Z,97794.03
2023-03-25T08:54:10.076Z,97800.41
2023-03-25T08:56:15.143Z,97793.25
2023-03-25T08:58:21.104Z,97784.28
2023-03-25T09:00:27.566Z,97785.47
2023-03-25T09:02:34.601Z,97785.38
2023-03-25T09:04:40.993Z,97788.38
2023-03-25T09:06:47.169Z,97782.78
2023-03-25T09:08:56.169Z,97788.59
2023-03-25T09:11:03.875Z,97787.75
2023-03-25T09:13:09.669Z,97780.16
2023-03-25T09:15:15.721Z,97783.69
2023-03-25T09:17:21.074Z,97774.91
2023-03-25T09:19:26.438Z,97777.53
2023-03-25T09:21:31.533Z,97780.16
2023-03-25T09:23:36.609Z,97776.66
2023-03-25T09:25:41.941Z,97772.75
2023-03-25T09:27:49.849Z,97760.69
2023-03-25T09:29:55.120Z,97763.19
2023-03-25T09:32:01.206Z,97765.53
2023-03-25T09:34:07.081Z,97767.47
2023-03-25T09:36:13.208Z,97763.06
2023-03-25T09:38:18.558Z,97764.84
2023-03-25T09:40:25.294Z,97756.28
2023-03-25T09:42:42.434Z,97749.91
2023-03-25T09:45:03.060Z,97755.13
2023-03-25T09:47:16.794Z,97746.91
2023-03-25T09:49:26.348Z,97748.22
2023-03-25T09:51:36.742Z,97756.38
2023-03-25T09:53:49.684Z,97751.50
2023-03-25T09:55:55.358Z,97738.50
2023-03-25T09:58:08.082Z,97745.03
2023-03-25T10:00:23.126Z,97747.91
2023-03-25T10:02:41.746Z,97731.75
2023-03-25T10:05:16.478Z,97732.50
2023-03-25T10:07:46.219Z,97728.13
2023-03-25T10:10:02.076Z,97735.31
2023-03-25T10:12:29.640Z,97729.81
2023-03-25T10:14:44.577Z,97740.13
2023-03-25T10:17:06.471Z,97740.53
2023-03-25T10:19:30.774Z,97749.88
2023-03-25T10:21:44.280Z,97743.00
2023-03-25T10:23:58.562Z,97750.50
2023-03-25T10:26:12.174Z,97751.13
2023-03-25T10:28:25.173Z,97764.63
2023-03-25T10:30:35.988Z,97774.59
2023-03-25T10:32:48.431Z,97796.94
2023-03-25T10:34:56.512Z,97837.16
2023-03-25T10:37:05.832Z,97853.16
2023-03-25T10:39:21.730Z,97903.91
2023-03-25T10:41:32.566Z,97894.63
2023-03-25T10:43:41.671Z,97902.31
2023-03-25T10:45:49.503Z,97891.88
2023-03-25T10:48:06.390Z,97877.03
2023-03-25T10:50:17.461Z,97872.00
2023-03-25T10:52:23.121Z,97873.63
2023-03-25T10:54:34.090Z,97871.84
2023-03-25T10:56:46.992Z,97870.00
2023-03-25T10:58:55.808Z,97863.09
2023-03-25T11:01:02.317Z,97864.59
2023-03-25T11:03:18.950Z,97861.00
2023-03-25T11:05:30.210Z,97860.69
2023-03-25T11:07:39.137Z,97855.34
2023-03-25T11:09:44.541Z,97850.09
2023-03-25T11:11:50.454Z,97848.00
2023-03-25T11:14:00.111Z,97847.78
2023-03-25T11:16:07.791Z,97844.13
2023-03-25T11:18:23.560Z,97841.06
2023-03-25T11:20:33.547Z,97836.13
2023-03-25T11:22:41.029Z,97824.00
2023-03-25T11:24:50.925Z,97829.38
2023-03-25T11:26:57.003Z,97842.03
2023-03-25T11:29:08.838Z,97836.28
2023-03-25T11:31:20.259Z,97835.44
2023-03-25T11:33:29.872Z,97830.59
2023-03-25T11:35:42.453Z,97826.88
2023-03-25T11:37:50.196Z,97835.97
2023-03-25T11:39:57.949Z,97827.66
2023-03-25T11:42:12.967Z,97833.13
2023-03-25T11:44:27.340Z,97831.59
2023-03-25T11:46:34.271Z,97833.38
2023-03-25T11:48:46.248Z,97827.13
2023-03-25T11:50:53.522Z,97835.13
2023-03-25T11:53:02.244Z,97828.94
2023-03-25T11:55:08.726Z,97827.19
2023-03-25T11:57:20.213Z,97830.13
2023-03-25T11:59:28.526Z,97835.84
2023-03-25T12:01:43.812Z,97828.13
2023-03-25T12:03:52.099Z,97820.25
2023-03-25T12:06:03.628Z,97828.75
2023-03-25T12:08:17.320Z,97823.25
2023-03-25T12:10:31.510Z,97825.69
2023-03-25T12:12:47.062Z,97810.59
2023-03-25T12:15:04.694Z,97811.53
2023-03-25T12:17:21.252Z,97789.78
2023-03-25T12:19:43.922Z,97783.41
2023-03-25T12:22:12.539Z,97780.00
2023-03-25T12:24:37.409Z,97780.09
2023-03-25T12:26:54.703Z,97793.78
2023-03-25T12:29:19.063Z,97781.13
2023-03-25T12:31:43.302Z,97778.97
2023-03-25T12:34:04.381Z,97783.75
2023-03-25T12:36:41.836Z,97780.88
2023-03-25T12:39:02.067Z,97766.53
2023-03-25T12:41:21.158Z,97770.31
2023-03-25T12:43:37.868Z,97753.63
2023-03-25T12:46:09.561Z,97750.56
2023-03-25T12:48:29.187Z,97754.00
2023-03-25T12:50:46.879Z,97754.16
2023-03-25T12:53:03.320Z,97751.78
2023-03-25T12:55:37.772Z,97742.50
2023-03-25T12:58:03.489Z,97736.91
2023-03-25T13:00:37.965Z,97722.56
2023-03-25T13:03:17.170Z,97713.81
2023-03-25T13:05:27.752Z,97721.59
2023-03-25T13:07:41.296Z,97707.44
2023-03-25T13:10:00.365Z,97717.25
2023-03-25T13:12:13.016Z,97713.72
2023-03-25T13:14:26.108Z,97717.28
2023-03-25T13:16:34.833Z,97715.78
2023-03-25T13:18:46.174Z,97714.81
2023-03-25T13:21:09.043Z,97701.56
2023-03-25T13:23:24.620Z,97715.59
2023-03-25T13:25:39.162Z,97713.88
2023-03-25T13:27:44.973Z,97701.06
2023-03-25T13:29:54.325Z,97689.81
2023-03-25T13:32:07.051Z,97690.06
2023-03-25T13:34:26.850Z,97692.06
2023-03-25T13:36:37.930Z,97684.75
2023-03-25T13:38:49.214Z,97681.56
2023-03-25T13:41:12.047Z,97701.81
2023-03-25T13:43:29.606Z,97722.91
2023-03-25T13:45:50.081Z,97716.59
2023-03-25T13:48:04.708Z,97696.16
2023-03-25T13:50:21.612Z,97673.78
2023-03-25T13:52:31.204Z,97679.09
2023-03-25T13:54:42.424Z,97678.88
2023-03-25T13:57:27.197Z,97674.91
2023-03-25T14:00:28.172Z,97675.56
2023-03-25T14:03:21.479Z,97677.97
2023-03-25T14:05:57.070Z,97695.38
2023-03-25T14:08:39.243Z,97683.44
2023-03-25T14:11:02.294Z,97702.84
2023-03-25T14:13:14.714Z,97688.34
2023-03-25T14:15:25.406Z,97710.59
2023-03-25T14:17:33.112Z,97726.88
2023-03-25T14:19:41.621Z,97704.56
2023-03-25T14:21:51.220Z,97707.78
2023-03-25T14:24:08.178Z,97699.66
2023-03-25T14:26:14.572Z,97686.91
2023-03-25T14:28:35.396Z,97686.19
2023-03-25T14:30:42.624Z,97701.81
2023-03-25T14:32:48.026Z,97711.59
2023-03-25T14:35:00.708Z,97717.41
2023-03-25T14:37:29.720Z,97737.28
2023-03-25T14:39:43.117Z,97706.88
2023-03-25T14:42:02.594Z,97712.25
2023-03-25T14:44:28.930Z,97702.22
2023-03-25T14:46:39.170Z,97706.81
2023-03-25T14:48:47.932Z,97701.56
2023-03-25T14:51:12.700Z,97692.53
2023-03-25T14:53:17.810Z,97680.06
2023-03-25T14:55:30.419Z,97697.09
2023-03-25T14:57:44.873Z,97702.50
2023-03-25T14:59:57.989Z,97710.22
2023-03-25T15:02:14.506Z,97734.28
2023-03-25T15:04:32.686Z,97730.19
2023-03-25T15:06:38.828Z,97751.47
2023-03-25T15:08:53.015Z,97774.53
2023-03-25T15:11:10.301Z,97745.19
2023-03-25T15:13:22.903Z,97737.88
2023-03-25T15:15:36.247Z,97734.09
2023-03-25T15:17:49.438Z,97719.84
2023-03-25T15:20:32.037Z,97719.81
2023-03-25T15:22:38.033Z,97713.13
2023-03-25T15:24:46.032Z,97714.34
2023-03-25T15:26:52.410Z,97712.28
2023-03-25T15:29:42.435Z,97697.13
2023-03-25T15:32:04.441Z,97684.25
2023-03-25T15:34:32.201Z,97681.91
2023-03-25T15:36:55.085Z,97673.47
2023-03-25T15:39:19.923Z,97685.25
2023-03-25T15:42:13.482Z,97685.88
2023-03-25T15:44:49.884Z,97685.91
2023-03-25T15:47:13.530Z,97687.66
2023-03-25T15:49:45.288Z,97695.13
2023-03-25T15:52:06.586Z,97699.06
2023-03-25T15:54:38.301Z,97697.81
2023-03-25T15:56:46.984Z,97702.94
2023-03-25T15:59:00.002Z,97694.97
2023-03-25T16:01:18.790Z,97701.66
2023-03-25T16:03:31.992Z,97700.66
2023-03-25T16:05:40.076Z,97698.13
2023-03-25T16:07:46.986Z,97699.81
2023-03-25T16:09:53.676Z,97712.88
2023-03-25T16:12:03.155Z,97701.75
2023-03-25T16:14:13.831Z,97696.88
2023-03-25T16:16:20.808Z,97701.09
2023-03-25T16:18:29.552Z,97697.81
2023-03-25T16:20:38.216Z,97696.94
2023-03-25T16:22:45.996Z,97681.81
2023-03-25T16:24:53.878Z,97685.06
2023-03-25T16:26:59.161Z,97684.63
2023-03-25T16:29:12.674Z,97681.78
2023-03-25T16:31:41.144Z,97664.88
2023-03-25T16:33:49.008Z,97650.06
2023-03-25T16:35:59.981Z,97663.56
2023-03-25T16:38:07.602Z,97675.44
2023-03-25T16:40:23.674Z,97694.25
2023-03-25T16:42:33.892Z,97700.53
2023-03-25T16:44:39.775Z,97703.44
2023-03-25T16:46:45.323Z,97703.72
2023-03-25T16:48:57.570Z,97705.91
2023-03-25T16:51:10.035Z,97712.91
2023-03-25T16:53:18.949Z,97710.19
2023-03-25T16:55:35.142Z,97707.94
2023-03-25T16:57:42.705Z,97707.47
2023-03-25T16:59:50.420Z,97697.53
2023-03-25T17:01:57.926Z,97710.06
2023-03-25T17:04:17.641Z,97701.88
2023-03-25T17:06:27.893Z,97712.63
2023-03-25T17:08:33.620Z,97714.53
2023-03-25T17:10:49.912Z,97712.91
2023-03-25T17:13:01.459Z,97718.06
2023-03-25T17:15:11.500Z,97724.59
2023-03-25T17:17:34.927Z,97734.16
2023-03-25T17:19:49.276Z,97750.19
2023-03-25T17:22:16.720Z,97775.09
2023-03-25T17:24:27.288Z,97794.66
2023-03-25T17:26:37.561Z,97814.59
2023-03-25T17:28:46.116Z,97797.84
2023-03-25T17:30:51.650Z,97804.50
2023-03-25T17:32:57.045Z,97792.19
2023-03-25T17:35:10.559Z,97789.47
2023-03-25T17:37:18.049Z,97782.50
2023-03-25T17:39:26.719Z,97783.34
2023-03-25T17:41:38.136Z,97774.56
2023-03-25T17:43:46.026Z,97768.22
2023-03-25T17:45:51.363Z,97756.66
2023-03-25T17:47:56.881Z,97757.75
2023-03-25T17:50:13.163Z,97744.41
2023-03-25T17:52:18.175Z,97736.78
2023-03-25T17:54:23.483Z,97738.47
2023-03-25T17:56:30.978Z,97742.91
2023-03-25T17:58:36.477Z,97745.75
2023-03-25T18:00:41.841Z,97742.91
2023-03-25T18:02:47.304Z,97753.66
2023-03-25T18:04:52.599Z,97760.00
2023-03-25T18:07:00.230Z,97764.44
2023-03-25T18:09:06.466Z,97772.44
2023-03-25T18:11:13.230Z,97768.72
2023-03-25T18:13:18.592Z,97784.75
2023-03-25T18:15:23.785Z,97768.88
2023-03-25T18:17:28.831Z,97772.25
2023-03-25T18:19:35.034Z,97780.13
2023-03-25T18:21:40.314Z,97783.09
2023-03-25T18:23:48.795Z,97780.78
2023-03-25T18:25:53.914Z,97787.06
2023-03-25T18:28:00.617Z,97779.47
2023-03-25T18:30:13.719Z,97782.88
2023-03-25T18:32:18.744Z,97784.69
2023-03-25T18:34:25.997Z,97785.06
2023-03-25T18:36:31.528Z,97783.31
2023-03-25T18:38:36.594Z,97798.16
2023-03-25T18:40:44.929Z,97790.97
2023-03-25T18:42:51.337Z,97801.19
2023-03-25T18:44:56.700Z,97792.69
2023-03-25T18:47:01.740Z,97805.06
2023-03-25T18:49:13.861Z,97791.81
2023-03-25T18:51:18.920Z,97802.94
2023-03-25T18:53:26.738Z,97797.91
2023-03-25T18:55:33.898Z,97803.75
2023-03-25T18:57:42.422Z,97797.53
2023-03-25T18:59:47.466Z,97808.41
2023-03-25T19:01:52.522Z,97800.94
2023-03-25T19:04:02.426Z,97800.13
2023-03-25T19:06:10.799Z,97804.44
2023-03-25T19:08:20.893Z,97801.03
2023-03-25T19:10:29.869Z,97788.28
2023-03-25T19:12:34.900Z,97790.25
2023-03-25T19:14:42.517Z,97792.97
2023-03-25T19:17:01.232Z,97794.47
2023-03-25T19:19:08.819Z,97798.72
2023-03-25T19:21:19.144Z,97796.81
2023-03-25T19:23:25.010Z,97801.41
2023-03-25T19:25:31.007Z,97811.28
2023-03-25T19:27:36.384Z,97812.28
2023-03-25T19:29:44.354Z,97823.25
2023-03-25T19:31:51.045Z,97832.50
2023-03-25T19:33:56.222Z,97818.03
2023-03-25T19:36:03.917Z,97815.00
2023-03-25T19:38:09.784Z,97820.84
2023-03-25T19:40:17.481Z,97811.97
2023-03-25T19:42:22.525Z,97818.16
2023-03-25T19:44:27.584Z,97804.81
2023-03-25T19:46:35.629Z,97805.06
2023-03-25T19:48:41.018Z,97815.13
2023-03-25T19:50:46.046Z,97811.41
2023-03-25T19:52:53.746Z,97810.34
2023-03-25T19:54:58.762Z,97806.13
2023-03-25T19:57:04.071Z,97816.25
2023-03-25T19:59:09.192Z,97808.84
2023-03-25T20:01:14.274Z,97813.97
2023-03-25T20:03:24.234Z,97817.44
2023-03-25T20:05:30.928Z,97810.75
2023-03-25T20:07:36.032Z,97813.97
2023-03-25T20:09:41.892Z,97819.91
2023-03-25T20:11:47.893Z,97815.84
2023-03-25T20:13:54.708Z,97829.41
2023-03-25T20:16:00.023Z,97815.50
2023-03-25T20:18:06.806Z,97823.00
2023-03-25T20:20:15.972Z,97834.09
2023-03-25T20:22:24.803Z,97856.66
2023-03-25T20:24:30.209Z,97858.63
2023-03-25T20:26:35.404Z,97863.91
2023-03-25T20:28:40.792Z,97870.31
2023-03-25T20:30:45.863Z,97885.88
2023-03-25T20:32:52.018Z,97893.94
2023-03-25T20:34:57.514Z,97879.22
2023-03-25T20:37:05.183Z,97884.94
2023-03-25T20:39:11.435Z,97882.09
2023-03-25T20:41:16.456Z,97877.53
2023-03-25T20:43:21.492Z,97869.75
2023-03-25T20:45:29.563Z,97874.78
2023-03-25T20:47:35.697Z,97868.22
2023-03-25T20:49:40.879Z,97871.69
2023-03-25T20:51:46.457Z,97875.88
2023-03-25T20:53:54.537Z,97860.88
2023-03-25T20:56:00.898Z,97859.31
2023-03-25T20:58:06.654Z,97853.53
2023-03-25T21:00:18.228Z,97857.03
2023-03-25T21:02:24.041Z,97858.38
2023-03-25T21:04:29.290Z,97854.38
2023-03-25T21:06:34.817Z,97864.53
2023-03-25T21:08:39.890Z,97849.34
2023-03-25T21:10:51.565Z,97843.44
2023-03-25T21:12:56.632Z,97847.59
2023-03-25T21:15:01.645Z,97850.88
2023-03-25T21:17:06.979Z,97855.97
2023-03-25T21:19:12.022Z,97840.81
2023-03-25T21:21:18.085Z,97843.44
2023-03-25T21:23:28.801Z,97840.06
2023-03-25T21:25:37.538Z,97849.69
2023-03-25T21:27:46.959Z,97854.69
2023-03-25T21:29:52.336Z,97864.63
2023-03-25T21:31:57.868Z,97870.41
2023-03-25T21:34:03.412Z,97867.81
2023-03-25T21:36:11.954Z,97872.00
2023-03-25T21:38:17.048Z,97877.91
2023-03-25T21:40:39.891Z,97887.88
2023-03-25T21:42:48.887Z,97901.03
2023-03-25T21:44:53.923Z,97907.47
2023-03-25T21:47:01.446Z,97908.47
2023-03-25T21:49:06.539Z,97914.44
2023-03-25T21:51:14.710Z,97909.78
2023-03-25T21:53:20.853Z,97914.53
2023-03-25T21:55:27.578Z,97922.47
2023-03-25T21:57:38.222Z,97922.72
2023-03-25T21:59:46.520Z,97931.22
2023-03-25T22:01:52.887Z,97930.06
2023-03-25T22:04:00.464Z,97935.59
2023-03-25T22:06:06.824Z,97941.00
2023-03-25T22:08:11.886Z,97943.69
2023-03-25T22:10:17.043Z,97952.94
2023-03-25T22:12:22.075Z,97936.72
2023-03-25T22:14:27.576Z,97933.94
2023-03-25T22:16:35.949Z,97929.38
2023-03-25T22:18:42.492Z,97929.69
2023-03-25T22:20:47.515Z,97927.56
2023-03-25T22:22:53.917Z,97933.78
2023-03-25T22:24:59.381Z,97933.25
2023-03-25T22:27:04.432Z,97941.16
2023-03-25T22:29:13.674Z,97944.66
2023-03-25T22:31:21.598Z,97947.16
2023-03-25T22:33:30.982Z,97942.22
2023-03-25T22:35:41.331Z,97939.03
2023-03-25T22:37:46.476Z,97949.16
2023-03-25T22:39:51.786Z,97951.56
2023-03-25T22:41:58.049Z,97959.78
2023-03-25T22:44:03.538Z,97955.50
2023-03-25T22:46:10.092Z,97960.13
2023-03-25T22:48:15.200Z,97960.75
2023-03-25T22:50:23.634Z,97960.72
2023-03-25T22:52:28.823Z,97951.28
2023-03-25T22:54:34.292Z,97947.09
2023-03-25T22:56:40.161Z,97947.16
2023-03-25T22:58:45.328Z,97952.09
2023-03-25T23:00:52.490Z,97950.53
2023-03-25T23:02:57.857Z,97958.91
2023-03-25T23:05:03.165Z,97950.53
2023-03-25T23:07:11.081Z,97947.09
2023-03-25T23:09:36.643Z,97943.66
2023-03-25T23:11:42.093Z,97948.56
2023-03-25T23:13:50.912Z,97947.75
2023-03-25T23:16:02.315Z,97942.84
2023-03-25T23:18:07.666Z,97947.81
2023-03-25T23:20:14.393Z,97928.44
2023-03-25T23:22:22.813Z,97923.22
2023-03-25T23:24:29.222Z,97936.50
2023-03-25T23:26:39.165Z,97924.78
2023-03-25T23:28:46.109Z,97931.34
2023-03-25T23:30:51.477Z,97926.44
2023-03-25T23:32:56.502Z,97931.50
2023-03-25T23:35:03.689Z,97932.19
2023-03-25T23:37:10.426Z,97931.47
2023-03-25T23:39:22.894Z,97928.94
2023-03-25T23:41:29.986Z,97916.19
2023-03-25T23:43:36.396Z,97905.31
2023-03-25T23:45:42.437Z,97918.97
2023-03-25T23:47:49.296Z,97918.97
2023-03-25T23:49:58.225Z,97928.44
2023-03-25T23:52:03.500Z,97925.28
2023-03-25T23:54:10.698Z,97924.41
2023-03-25T23:56:20.728Z,97931.91
2023-03-25T23:58:26.046Z,97926.06
